Time;durP1;ratioP1;P1;durP2;ratioP2;P2;SDS_P1;SDS_P2;PMS_P1;PMS_P2;Temp;Humidity;BMP_temperature;BMP_pressure;BME280_temperature;BME280_humidity;BME280_pressure;Samples;Min_cycle;Max_cycle;Signal;HPM_P1;HPM_P2
2021/12/28 00:01:01;;;;;;;17.77;3.58;;;4.40;99.90;;;;;;20650117;28;20041;-77
2021/12/28 00:11:05;;;;;;;6.00;1.30;;;3.80;99.90;;;;;;20649089;28;20034;-77
2021/12/28 00:21:07;;;;;;;9.80;1.77;;;3.70;99.90;;;;;;20650784;28;20034;-77
2021/12/28 00:31:08;;;;;;;3.42;2.15;;;3.90;99.90;;;;;;20633425;28;20034;-78
2021/12/28 00:41:09;;;;;;;9.18;2.15;;;4.10;99.90;;;;;;20632864;28;20093;-77
2021/12/28 00:51:10;;;;;;;20.45;8.55;;;4.50;99.90;;;;;;20663187;28;20038;-77
2021/12/28 01:01:11;;;;;;;13.25;6.32;;;4.90;99.90;;;;;;20656233;28;20069;-77
2021/12/28 01:11:12;;;;;;;16.42;5.78;;;5.00;99.90;;;;;;20665437;28;20448;-78
2021/12/28 01:21:13;;;;;;;9.90;4.60;;;5.00;99.90;;;;;;20683783;28;20040;-77
2021/12/28 01:31:14;;;;;;;13.80;4.57;;;4.90;99.90;;;;;;20665513;28;20516;-77
2021/12/28 01:41:15;;;;;;;16.58;5.72;;;5.00;99.90;;;;;;20682879;28;20038;-77
2021/12/28 01:51:21;;;;;;;20.20;7.47;;;5.20;99.90;;;;;;20679573;28;20402;-78
2021/12/28 02:01:24;;;;;;;19.38;8.90;;;5.30;99.90;;;;;;20660130;28;20042;-77
2021/12/28 02:11:24;;;;;;;20.13;8.18;;;5.40;99.90;;;;;;20659082;28;20065;-77
2021/12/28 02:21:26;;;;;;;23.53;8.43;;;5.40;99.90;;;;;;20676730;28;20436;-77
2021/12/28 02:31:28;;;;;;;18.00;8.23;;;5.50;99.90;;;;;;20674250;28;20892;-77
2021/12/28 02:41:28;;;;;;;13.20;5.10;;;5.60;99.90;;;;;;20689524;23;20041;-79
2021/12/28 02:51:29;;;;;;;10.82;3.58;;;5.60;99.90;;;;;;20673843;28;20074;-80
2021/12/28 03:01:30;;;;;;;9.90;3.72;;;5.70;99.90;;;;;;20676036;28;20478;-78
2021/12/28 03:11:31;;;;;;;;;;;5.60;99.90;;;;;;20671372;28;20042;-77
2021/12/28 03:21:35;;;;;;;11.32;3.67;;;5.60;99.90;;;;;;20674459;28;19916;-78
2021/12/28 03:31:36;;;;;;;13.68;4.93;;;5.80;99.90;;;;;;20673739;28;20113;-79
2021/12/28 03:41:37;;;;;;;9.38;4.20;;;5.70;99.90;;;;;;20670209;28;20038;-80
2021/12/28 03:51:38;;;;;;;9.30;4.78;;;5.70;99.90;;;;;;20670169;28;20026;-80
2021/12/28 04:01:39;;;;;;;16.77;7.30;;;5.60;99.90;;;;;;20669658;28;20033;-78
2021/12/28 04:11:40;;;;;;;13.23;7.10;;;5.70;99.90;;;;;;20669805;28;20030;-80
2021/12/28 04:21:40;;;;;;;11.80;6.07;;;5.60;99.90;;;;;;20669624;28;20285;-79
2021/12/28 04:31:41;;;;;;;11.03;6.23;;;5.80;99.90;;;;;;20667119;28;20089;-80
2021/12/28 04:41:43;;;;;;;9.23;5.47;;;5.80;99.90;;;;;;20671359;28;20033;-79
2021/12/28 04:51:44;;;;;;;13.32;6.00;;;5.80;99.90;;;;;;20673387;28;20372;-80
2021/12/28 05:01:45;;;;;;;18.17;8.13;;;5.80;99.90;;;;;;20667050;28;20444;-79
2021/12/28 05:11:48;;;;;;;;;;;5.60;99.90;;;;;;20665889;28;20096;-79
2021/12/28 05:21:49;;;;;;;9.52;3.45;;;5.70;99.90;;;;;;20667833;28;19909;-79
2021/12/28 05:31:50;;;;;;;4.80;1.83;;;6.10;99.90;;;;;;20670051;28;20033;-79
2021/12/28 05:41:50;;;;;;;10.80;1.23;;;6.40;99.90;;;;;;20679233;28;20045;-79
2021/12/28 05:51:52;;;;;;;3.57;1.30;;;6.80;99.90;;;;;;20679532;28;20054;-80
2021/12/28 06:01:52;;;;;;;2.13;1.13;;;7.00;99.90;;;;;;20678290;28;20034;-79
2021/12/28 06:11:54;;;;;;;0.47;0.47;;;6.80;99.90;;;;;;20678160;28;20045;-80
2021/12/28 06:21:54;;;;;;;2.22;0.70;;;6.70;99.90;;;;;;20677529;28;20038;-79
2021/12/28 06:31:55;;;;;;;0.90;0.70;;;6.50;99.90;;;;;;20675433;28;20528;-79
2021/12/28 06:41:56;;;;;;;1.63;0.80;;;6.50;99.90;;;;;;20674884;28;20568;-80
2021/12/28 06:51:57;;;;;;;0.20;0.20;;;6.50;99.90;;;;;;20674747;28;20026;-80
2021/12/28 07:02:00;;;;;;;0.20;0.20;;;6.80;99.90;;;;;;20675137;28;20041;-80
2021/12/28 07:12:02;;;;;;;1.65;1.17;;;7.20;99.90;;;;;;20674373;28;20037;-79
2021/12/28 07:22:03;;;;;;;2.53;1.10;;;7.10;99.90;;;;;;20676139;28;20077;-78
2021/12/28 07:32:06;;;;;;;;;;;6.70;99.90;;;;;;20690217;28;20157;-78
2021/12/28 07:42:07;;;;;;;5.93;3.38;;;6.40;99.90;;;;;;20682546;28;19921;-77
2021/12/28 07:52:08;;;;;;;4.78;2.60;;;6.40;99.90;;;;;;20682133;28;20034;-77
2021/12/28 08:02:09;;;;;;;1.93;1.30;;;6.40;99.90;;;;;;20702188;28;20073;-76
2021/12/28 08:12:10;;;;;;;1.27;0.97;;;6.60;99.90;;;;;;20702564;28;20300;-77
2021/12/28 08:22:11;;;;;;;1.70;1.42;;;6.70;99.90;;;;;;20667360;28;20038;-77
2021/12/28 08:32:11;;;;;;;12.70;6.40;;;6.90;99.90;;;;;;20673042;28;20030;-77
2021/12/28 08:42:12;;;;;;;2.00;1.43;;;7.00;99.90;;;;;;20685722;23;20229;-75
2021/12/28 08:52:14;;;;;;;0.60;0.50;;;7.40;99.90;;;;;;20560026;28;20078;-76
2021/12/28 09:02:16;;;;;;;10.67;4.33;;;7.50;99.90;;;;;;20561414;28;20835;-75
2021/12/28 09:12:17;;;;;;;2.17;1.25;;;7.40;99.90;;;;;;20580346;28;20034;-78
2021/12/28 09:22:18;;;;;;;6.73;3.27;;;7.60;99.90;;;;;;20584827;28;20533;-77
2021/12/28 09:32:18;;;;;;;27.63;10.70;;;7.90;99.90;;;;;;20579862;28;20098;-76
2021/12/28 09:42:19;;;;;;;6.97;4.10;;;8.00;99.90;;;;;;20578751;28;20532;-77
2021/12/28 09:52:20;;;;;;;10.23;4.40;;;7.90;99.90;;;;;;20563429;28;20683;-77
2021/12/28 10:02:21;;;;;;;16.83;6.63;;;7.90;99.90;;;;;;20581146;28;20121;-77
2021/12/28 10:12:32;;;;;;;5.37;2.93;;;8.00;99.90;;;;;;20561312;28;20322;-76
2021/12/28 10:22:38;;;;;;;3.40;1.63;;;8.20;99.90;;;;;;20482734;28;20074;-78
2021/12/28 10:32:43;;;;;;;15.70;9.25;;;8.70;99.90;;;;;;20579354;28;20038;-78
2021/12/28 10:42:56;;;;;;;7.68;4.68;;;8.40;99.90;;;;;;20589749;28;20042;-79
2021/12/28 10:53:03;;;;;;;9.40;4.90;;;8.40;99.90;;;;;;20602088;28;20039;-78
2021/12/28 11:03:16;;;;;;;6.10;3.90;;;8.60;99.90;;;;;;20606671;28;20031;-78
2021/12/28 11:13:22;;;;;;;9.90;4.68;;;8.70;99.90;;;;;;20585904;28;20038;-77
2021/12/28 11:23:26;;;;;;;7.93;4.05;;;8.70;99.90;;;;;;20593202;28;20504;-78
2021/12/28 11:33:40;;;;;;;4.05;2.58;;;8.70;99.90;;;;;;20602417;28;20549;-78
2021/12/28 11:43:42;;;;;;;10.73;6.30;;;8.80;99.90;;;;;;20594657;28;20244;-78
2021/12/28 11:53:46;;;;;;;11.75;7.53;;;9.00;99.90;;;;;;20575196;28;20042;-77
2021/12/28 12:03:48;;;;;;;8.50;5.40;;;8.90;99.90;;;;;;20593636;28;20517;-78
2021/12/28 12:13:49;;;;;;;8.18;3.65;;;9.00;99.90;;;;;;20567462;28;20050;-76
2021/12/28 12:23:51;;;;;;;6.43;4.27;;;9.10;99.90;;;;;;20584795;28;20374;-76
2021/12/28 12:33:52;;;;;;;8.75;3.92;;;9.20;99.90;;;;;;20567694;28;20382;-76
2021/12/28 12:43:57;;;;;;;6.73;3.00;;;9.30;99.90;;;;;;20569871;28;20126;-77
2021/12/28 12:54:43;;;;;;;7.32;3.75;;;9.50;99.90;;;;;;20605046;28;20497;-76
2021/12/28 13:04:47;;;;;;;4.90;3.08;;;9.60;99.90;;;;;;20552572;28;20721;-76
2021/12/28 13:14:48;;;;;;;9.93;5.10;;;9.70;99.90;;;;;;20565035;28;20413;-77
2021/12/28 13:24:49;;;;;;;5.18;3.53;;;9.80;99.90;;;;;;20577292;28;20037;-76
2021/12/28 13:35:12;;;;;;;5.37;2.00;;;9.80;99.90;;;;;;20555201;28;20588;-77
2021/12/28 13:45:30;;;;;;;0.25;0.20;;;10.10;99.90;;;;;;20575102;28;20031;-77
2021/12/28 13:55:34;;;;;;;1.10;0.25;;;10.90;99.90;;;;;;20575058;28;20042;-77
2021/12/28 14:05:35;;;;;;;3.35;0.20;;;10.80;99.90;;;;;;20573638;28;20592;-77
2021/12/28 14:16:15;;;;;;;2.33;0.83;;;10.70;99.90;;;;;;20590262;28;20043;-77
2021/12/28 14:26:19;;;;;;;1.65;0.88;;;10.70;99.90;;;;;;20267000;29;20557;-77
2021/12/28 14:36:27;;;;;;;6.38;2.60;;;10.40;99.90;;;;;;20249668;29;20044;-77
2021/12/28 14:46:29;;;;;;;2.50;1.05;;;10.50;99.90;;;;;;20455207;23;20050;-75
2021/12/28 14:56:31;;;;;;;4.22;0.50;;;10.80;99.90;;;;;;20661641;28;20030;-75
2021/12/28 15:06:31;;;;;;;1.58;0.47;;;10.70;99.90;;;;;;20645171;28;20033;-76
2021/12/28 15:16:32;;;;;;;2.83;0.60;;;10.40;99.90;;;;;;20659526;28;20030;-76
2021/12/28 15:26:33;;;;;;;2.70;0.63;;;10.20;99.90;;;;;;20654667;28;20073;-76
2021/12/28 15:36:36;;;;;;;5.90;0.70;;;9.80;99.90;;;;;;20663964;28;20026;-76
2021/12/28 15:46:41;;;;;;;5.40;0.88;;;9.80;99.90;;;;;;20648772;28;20042;-76
2021/12/28 15:56:43;;;;;;;3.35;1.27;;;9.60;99.90;;;;;;20657212;28;20454;-76
2021/12/28 16:06:44;;;;;;;7.55;1.23;;;9.60;99.90;;;;;;20648164;28;20030;-75
2021/12/28 16:16:45;;;;;;;2.13;0.60;;;9.50;99.90;;;;;;20638523;28;20041;-76
2021/12/28 16:26:46;;;;;;;4.17;0.80;;;9.70;99.90;;;;;;20658377;28;20033;-75
2021/12/28 16:36:47;;;;;;;6.00;0.80;;;9.60;99.90;;;;;;20653240;28;20289;-75
2021/12/28 16:46:54;;;;;;;3.87;0.60;;;9.10;99.90;;;;;;20658395;28;20034;-76
2021/12/28 16:56:55;;;;;;;3.95;0.85;;;8.70;99.90;;;;;;20632815;28;20370;-75
2021/12/28 17:06:56;;;;;;;3.87;1.00;;;8.50;99.90;;;;;;20616532;28;20048;-75
2021/12/28 17:16:57;;;;;;;;;;;8.40;99.90;;;;;;20590489;28;20059;-75
2021/12/28 17:26:58;;;;;;;5.63;1.00;;;8.40;99.90;;;;;;20604948;28;20275;-75
2021/12/28 17:37:00;;;;;;;;;;;8.40;99.90;;;;;;20657702;28;20042;-75
2021/12/28 17:47:02;;;;;;;5.22;1.05;;;8.50;99.90;;;;;;20641185;28;19913;-76
2021/12/28 17:57:03;;;;;;;4.03;0.95;;;8.50;99.90;;;;;;20636724;28;20048;-76
2021/12/28 18:07:06;;;;;;;2.43;0.97;;;8.60;99.90;;;;;;20620415;28;20030;-76
2021/12/28 18:17:07;;;;;;;1.27;0.60;;;8.70;99.90;;;;;;20614549;28;20026;-76
2021/12/28 18:27:08;;;;;;;3.37;0.77;;;8.80;99.90;;;;;;20618775;28;20033;-75
2021/12/28 18:37:10;;;;;;;6.90;1.17;;;8.90;99.90;;;;;;20646580;28;20038;-75
2021/12/28 18:47:11;;;;;;;5.22;0.98;;;9.10;99.90;;;;;;20630311;28;20034;-76
2021/12/28 18:57:13;;;;;;;4.82;1.10;;;9.20;99.90;;;;;;20588331;28;20161;-74
2021/12/28 19:07:15;;;;;;;5.78;1.10;;;9.40;99.90;;;;;;20602165;28;20420;-76
2021/12/28 19:17:15;;;;;;;11.37;1.90;;;9.50;99.90;;;;;;20588312;28;20049;-76
2021/12/28 19:27:16;;;;;;;11.30;2.03;;;9.80;99.90;;;;;;20584665;28;20517;-76
2021/12/28 19:37:17;;;;;;;13.73;2.13;;;9.70;99.90;;;;;;20582880;28;20047;-75
2021/12/28 19:47:19;;;;;;;11.90;1.87;;;9.30;99.90;;;;;;20599814;28;20148;-76
2021/12/28 19:57:19;;;;;;;;;;;9.20;99.90;;;;;;20607427;28;20117;-77
2021/12/28 20:07:20;;;;;;;9.70;1.53;;;8.70;99.90;;;;;;20625122;28;20012;-77
2021/12/28 20:17:21;;;;;;;14.87;2.17;;;8.30;99.90;;;;;;20608680;28;20356;-76
2021/12/28 20:27:23;;;;;;;15.33;1.93;;;8.10;99.90;;;;;;20608915;28;20498;-77
2021/12/28 20:37:24;;;;;;;;;;;8.10;99.90;;;;;;20602394;28;20050;-77
2021/12/28 20:57:31;;;;;;;15.00;3.22;;;8.20;99.90;;;;;;20598146;28;20124;-80
2021/12/28 21:07:33;;;;;;;13.32;3.22;;;8.20;99.90;;;;;;20638500;28;20044;-80
2021/12/28 21:17:36;;;;;;;;;;;8.30;99.90;;;;;;20642750;28;20038;-79
2021/12/28 21:27:41;;;;;;;18.02;2.03;;;8.40;99.90;;;;;;20645214;28;19910;-80
2021/12/28 21:37:45;;;;;;;15.40;2.10;;;8.50;99.90;;;;;;20565886;28;20411;-80
2021/12/28 21:47:46;;;;;;;8.13;1.80;;;8.60;99.90;;;;;;20634518;28;20053;-79
2021/12/28 21:57:49;;;;;;;10.83;2.10;;;8.60;99.90;;;;;;20652109;28;20042;-80
2021/12/28 22:07:53;;;;;;;16.20;1.88;;;8.50;99.90;;;;;;20575646;28;20090;-78
2021/12/28 22:17:54;;;;;;;17.88;2.55;;;8.70;99.90;;;;;;20607222;28;20081;-78
2021/12/28 22:27:55;;;;;;;16.50;2.60;;;8.60;99.90;;;;;;20581943;28;20038;-77
2021/12/28 22:37:56;;;;;;;18.27;2.60;;;8.80;99.90;;;;;;20634006;28;20038;-81
2021/12/28 22:47:57;;;;;;;13.73;2.50;;;8.90;99.90;;;;;;20654871;28;20116;-81
2021/12/28 22:57:58;;;;;;;15.57;2.45;;;8.80;99.90;;;;;;20623913;28;20046;-80
2021/12/28 23:08:00;;;;;;;17.67;2.63;;;8.80;99.90;;;;;;20640296;28;20148;-82
2021/12/28 23:18:07;;;;;;;13.02;2.50;;;8.80;99.90;;;;;;20700582;28;20046;-79
2021/12/28 23:28:08;;;;;;;11.73;1.88;;;8.90;99.90;;;;;;20648676;28;20030;-80
2021/12/28 23:38:10;;;;;;;13.90;2.20;;;8.90;99.90;;;;;;20606630;28;20939;-79
2021/12/28 23:48:11;;;;;;;13.93;2.67;;;8.80;99.90;;;;;;20621241;28;20034;-81
2021/12/28 23:58:12;;;;;;;12.37;1.90;;;8.60;99.90;;;;;;20681576;28;20088;-78
